createdAt,value
2023-05-21T00:00:21.166Z,94817.00
2023-05-21T00:01:21.200Z,94815.00
2023-05-21T00:02:21.233Z,94819.00
2023-05-21T00:03:21.348Z,94817.00
2023-05-21T00:04:21.354Z,94819.00
2023-05-21T00:05:21.390Z,94821.00
2023-05-21T00:06:21.478Z,94819.00
2023-05-21T00:07:21.439Z,94817.00
2023-05-21T00:08:21.517Z,94819.00
2023-05-21T00:09:21.488Z,94819.00
2023-05-21T00:10:21.595Z,94821.00
2023-05-21T00:11:21.609Z,94821.00
2023-05-21T00:12:21.649Z,94815.00
2023-05-21T00:13:21.673Z,94817.00
2023-05-21T00:14:21.731Z,94817.00
2023-05-21T00:15:21.782Z,94811.00
2023-05-21T00:16:21.849Z,94813.00
2023-05-21T00:17:21.860Z,94815.00
2023-05-21T00:18:21.898Z,94815.00
2023-05-21T00:19:22.002Z,94817.00
2023-05-21T00:20:21.984Z,94817.00
2023-05-21T00:21:22.023Z,94815.00
2023-05-21T00:22:22.043Z,94815.00
2023-05-21T00:23:22.110Z,94813.00
2023-05-21T00:24:22.108Z,94815.00
2023-05-21T00:25:22.184Z,94815.00
2023-05-21T00:26:22.202Z,94813.00
2023-05-21T00:27:22.237Z,94813.00
2023-05-21T00:28:22.283Z,94813.00
2023-05-21T00:29:22.359Z,94811.00
2023-05-21T00:30:22.411Z,94811.00
2023-05-21T00:31:22.495Z,94815.00
2023-05-21T00:32:22.498Z,94815.00
2023-05-21T00:33:22.493Z,94817.00
2023-05-21T00:34:22.543Z,94817.00
2023-05-21T00:35:22.624Z,94819.00
2023-05-21T00:36:22.623Z,94819.00
2023-05-21T00:37:22.670Z,94817.00
2023-05-21T00:38:22.715Z,94817.00
2023-05-21T00:39:22.730Z,94817.00
2023-05-21T00:40:22.790Z,94815.00
2023-05-21T00:41:22.823Z,94815.00
2023-05-21T00:42:22.864Z,94815.00
2023-05-21T00:43:22.940Z,94813.00
2023-05-21T00:44:22.950Z,94813.00
2023-05-21T00:45:22.984Z,94813.00
2023-05-21T00:46:23.124Z,94809.00
2023-05-21T00:47:23.139Z,94813.00
2023-05-21T00:48:23.125Z,94813.00
2023-05-21T00:49:23.188Z,94815.00
2023-05-21T00:50:23.220Z,94819.00
2023-05-21T00:51:23.284Z,94819.00
2023-05-21T00:52:23.305Z,94815.00
2023-05-21T00:53:23.344Z,94815.00
2023-05-21T00:54:23.393Z,94813.00
2023-05-21T00:55:23.454Z,94813.00
2023-05-21T00:56:23.464Z,94811.00
2023-05-21T00:57:23.484Z,94813.00
2023-05-21T00:58:23.516Z,94811.00
2023-05-21T00:59:23.625Z,94813.00
2023-05-21T01:00:23.649Z,94815.00
2023-05-21T01:01:23.766Z,94817.00
2023-05-21T01:02:23.805Z,94817.00
2023-05-21T01:03:24.039Z,94817.00
2023-05-21T01:04:23.867Z,94819.00
2023-05-21T01:05:23.874Z,94817.00
2023-05-21T01:06:23.921Z,94813.00
2023-05-21T01:07:23.983Z,94807.00
2023-05-21T01:08:23.979Z,94811.00
2023-05-21T01:09:24.029Z,94809.00
2023-05-21T01:10:24.069Z,94811.00
2023-05-21T01:11:24.133Z,94811.00
2023-05-21T01:12:24.183Z,94811.00
2023-05-21T01:13:24.216Z,94811.00
2023-05-21T01:14:24.266Z,94809.00
2023-05-21T01:15:24.308Z,94811.00
2023-05-21T01:16:25.289Z,94809.00
2023-05-21T01:17:24.519Z,94809.00
2023-05-21T01:18:24.481Z,94805.00
2023-05-21T01:19:24.507Z,94801.00
2023-05-21T01:20:24.549Z,94801.00
2023-05-21T01:21:24.543Z,94803.00
2023-05-21T01:22:24.619Z,94803.00
2023-05-21T01:23:24.643Z,94805.00
2023-05-21T01:24:24.717Z,94805.00
2023-05-21T01:25:24.778Z,94805.00
2023-05-21T01:26:24.792Z,94805.00
2023-05-21T01:27:24.811Z,94803.00
2023-05-21T01:28:24.885Z,94803.00
2023-05-21T01:29:24.898Z,94803.00
2023-05-21T01:30:25.041Z,94805.00
2023-05-21T01:31:25.010Z,94809.00
2023-05-21T01:32:25.075Z,94811.00
2023-05-21T01:33:25.212Z,94809.00
2023-05-21T01:34:25.132Z,94805.00
2023-05-21T01:35:25.185Z,94801.00
2023-05-21T01:36:25.226Z,94799.00
2023-05-21T01:37:25.270Z,94801.00
2023-05-21T01:38:25.322Z,94803.00
2023-05-21T01:39:25.331Z,94801.00
2023-05-21T01:40:25.409Z,94803.00
2023-05-21T01:41:25.411Z,94801.00
2023-05-21T01:42:25.474Z,94801.00
2023-05-21T01:43:25.522Z,94801.00
2023-05-21T01:44:25.545Z,94801.00
2023-05-21T01:45:25.607Z,94799.00
2023-05-21T01:46:25.722Z,94797.00
2023-05-21T01:47:25.721Z,94797.00
2023-05-21T01:48:25.746Z,94795.00
2023-05-21T01:49:25.829Z,94793.00
2023-05-21T01:50:25.872Z,94791.00
2023-05-21T01:51:25.860Z,94791.00
2023-05-21T01:52:25.922Z,94793.00
2023-05-21T01:53:25.956Z,94791.00
2023-05-21T01:54:26.011Z,94791.00
2023-05-21T01:55:26.078Z,94790.00
2023-05-21T01:56:26.143Z,94791.00
2023-05-21T01:57:26.192Z,94790.00
2023-05-21T01:58:26.189Z,94791.00
2023-05-21T01:59:26.260Z,94790.00
2023-05-21T02:00:26.303Z,94791.00
2023-05-21T02:01:26.338Z,94793.00
2023-05-21T02:02:26.404Z,94795.00
2023-05-21T02:03:26.538Z,94797.00
2023-05-21T02:04:26.444Z,94797.00
2023-05-21T02:05:26.528Z,94795.00
2023-05-21T02:06:26.536Z,94793.00
2023-05-21T02:07:26.619Z,94791.00
2023-05-21T02:08:26.632Z,94793.00
2023-05-21T02:09:26.665Z,94795.00
2023-05-21T02:10:26.735Z,94799.00
2023-05-21T02:11:26.751Z,94799.00
2023-05-21T02:12:26.771Z,94801.00
2023-05-21T02:13:27.093Z,94801.00
2023-05-21T02:14:26.866Z,94805.00
2023-05-21T02:15:26.978Z,94803.00
2023-05-21T02:16:27.013Z,94803.00
2023-05-21T02:17:27.030Z,94801.00
2023-05-21T02:18:27.044Z,94801.00
2023-05-21T02:19:27.178Z,94801.00
2023-05-21T02:20:27.160Z,94803.00
2023-05-21T02:21:27.244Z,94807.00
2023-05-21T02:22:27.226Z,94805.00
2023-05-21T02:23:27.284Z,94805.00
2023-05-21T02:24:27.310Z,94807.00
2023-05-21T02:25:27.340Z,94807.00
2023-05-21T02:26:27.420Z,94807.00
2023-05-21T02:27:27.455Z,94805.00
2023-05-21T02:28:27.471Z,94803.00
2023-05-21T02:29:27.529Z,94801.00
2023-05-21T02:30:27.609Z,94801.00
2023-05-21T02:31:27.626Z,94803.00
2023-05-21T02:32:27.710Z,94801.00
2023-05-21T02:33:27.710Z,94799.00
2023-05-21T02:34:27.826Z,94799.00
2023-05-21T02:35:27.841Z,94797.00
2023-05-21T02:36:27.834Z,94797.00
2023-05-21T02:37:27.861Z,94797.00
2023-05-21T02:38:27.927Z,94793.00
2023-05-21T02:39:27.971Z,94791.00
2023-05-21T02:40:28.053Z,94791.00
2023-05-21T02:41:28.066Z,94790.00
2023-05-21T02:42:28.104Z,94790.00
2023-05-21T02:43:28.144Z,94786.00
2023-05-21T02:44:28.180Z,94786.00
2023-05-21T02:45:28.257Z,94786.00
2023-05-21T02:46:28.363Z,94786.00
2023-05-21T02:47:28.402Z,94786.00
2023-05-21T02:48:28.383Z,94784.00
2023-05-21T02:49:28.424Z,94782.00
2023-05-21T02:50:28.561Z,94782.00
2023-05-21T02:51:28.507Z,94780.00
2023-05-21T02:52:28.563Z,94780.00
2023-05-21T02:53:28.586Z,94788.00
2023-05-21T02:54:28.608Z,94786.00
2023-05-21T02:55:28.690Z,94788.00
2023-05-21T02:56:28.717Z,94788.00
2023-05-21T02:57:28.758Z,94786.00
2023-05-21T02:58:28.792Z,94782.00
2023-05-21T02:59:28.881Z,94790.00
2023-05-21T03:00:28.998Z,94790.00
2023-05-21T03:01:28.982Z,94786.00
2023-05-21T03:02:28.990Z,94790.00
2023-05-21T03:03:29.114Z,94790.00
2023-05-21T03:04:29.087Z,94790.00
2023-05-21T03:05:29.143Z,94791.00
2023-05-21T03:06:29.163Z,94795.00
2023-05-21T03:07:29.148Z,94797.00
2023-05-21T03:08:29.239Z,94797.00
2023-05-21T03:09:29.235Z,94797.00
2023-05-21T03:10:29.316Z,94797.00
2023-05-21T03:11:29.358Z,94799.00
2023-05-21T03:12:29.407Z,94801.00
2023-05-21T03:13:29.461Z,94797.00
2023-05-21T03:14:29.509Z,94799.00
2023-05-21T03:15:29.523Z,94799.00
2023-05-21T03:16:29.576Z,94799.00
2023-05-21T03:17:29.635Z,94797.00
2023-05-21T03:18:29.665Z,94805.00
2023-05-21T03:19:29.767Z,94805.00
2023-05-21T03:20:29.782Z,94797.00
2023-05-21T03:21:29.764Z,94795.00
2023-05-21T03:22:29.792Z,94801.00
2023-05-21T03:23:29.851Z,94805.00
2023-05-21T03:24:29.905Z,94801.00
2023-05-21T03:25:29.949Z,94801.00
2023-05-21T03:26:29.971Z,94797.00
2023-05-21T03:27:30.066Z,94795.00
2023-05-21T03:28:30.116Z,94795.00
2023-05-21T03:29:30.144Z,94801.00
2023-05-21T03:30:30.165Z,94803.00
2023-05-21T03:31:30.257Z,94801.00
2023-05-21T03:32:30.304Z,94799.00
2023-05-21T03:33:30.295Z,94797.00
2023-05-21T03:34:30.333Z,94803.00
2023-05-21T03:35:30.378Z,94797.00
2023-05-21T03:36:30.429Z,94805.00
2023-05-21T03:37:30.488Z,94801.00
2023-05-21T03:38:30.544Z,94801.00
2023-05-21T03:39:30.556Z,94801.00
2023-05-21T03:40:30.646Z,94803.00
2023-05-21T03:41:30.655Z,94807.00
2023-05-21T03:42:30.720Z,94809.00
2023-05-21T03:43:30.754Z,94815.00
2023-05-21T03:44:30.786Z,94817.00
2023-05-21T03:45:30.856Z,94815.00
2023-05-21T03:46:30.956Z,94815.00
2023-05-21T03:47:30.921Z,94813.00
2023-05-21T03:48:30.974Z,94811.00
2023-05-21T03:49:31.026Z,94803.00
2023-05-21T03:50:31.029Z,94807.00
2023-05-21T03:51:31.101Z,94803.00
2023-05-21T03:52:31.147Z,94811.00
2023-05-21T03:53:31.162Z,94811.00
2023-05-21T03:54:31.191Z,94803.00
2023-05-21T03:55:31.253Z,94805.00
2023-05-21T03:56:31.267Z,94809.00
2023-05-21T03:57:31.339Z,94807.00
2023-05-21T03:58:31.402Z,94807.00
2023-05-21T03:59:31.406Z,94809.00
2023-05-21T04:00:31.461Z,94807.00
2023-05-21T04:01:31.511Z,94801.00
2023-05-21T04:02:31.608Z,94801.00
2023-05-21T04:03:31.851Z,94807.00
2023-05-21T04:04:31.670Z,94815.00
2023-05-21T04:05:31.705Z,94815.00
2023-05-21T04:06:31.738Z,94817.00
2023-05-21T04:07:31.776Z,94809.00
2023-05-21T04:08:31.828Z,94811.00
2023-05-21T04:09:31.916Z,94819.00
2023-05-21T04:10:31.972Z,94825.00
2023-05-21T04:11:31.968Z,94817.00
2023-05-21T04:12:32.097Z,94813.00
2023-05-21T04:13:32.111Z,94805.00
2023-05-21T04:14:32.074Z,94817.00
2023-05-21T04:15:32.156Z,94829.00
2023-05-21T04:16:32.168Z,94827.00
2023-05-21T04:17:32.230Z,94839.00
2023-05-21T04:18:32.246Z,94835.00
2023-05-21T04:19:32.505Z,94831.00
2023-05-21T04:20:32.384Z,94827.00
2023-05-21T04:21:32.378Z,94829.00
2023-05-21T04:22:32.460Z,94831.00
2023-05-21T04:23:32.513Z,94845.00
2023-05-21T04:24:32.543Z,94846.00
2023-05-21T04:25:32.638Z,94846.00
2023-05-21T04:26:32.606Z,94845.00
2023-05-21T04:27:32.670Z,94841.00
2023-05-21T04:28:32.695Z,94835.00
2023-05-21T04:29:32.766Z,94839.00
2023-05-21T04:30:32.837Z,94843.00
2023-05-21T04:31:32.858Z,94846.00
2023-05-21T04:32:32.926Z,94848.00
2023-05-21T04:33:32.917Z,94845.00
2023-05-21T04:34:32.978Z,94835.00
2023-05-21T04:35:33.206Z,94837.00
2023-05-21T04:36:33.084Z,94835.00
2023-05-21T04:37:33.097Z,94837.00
2023-05-21T04:38:33.134Z,94835.00
2023-05-21T04:39:33.219Z,94835.00
2023-05-21T04:40:33.287Z,94837.00
2023-05-21T04:41:33.212Z,94833.00
2023-05-21T04:42:33.261Z,94839.00
2023-05-21T04:43:33.241Z,94837.00
2023-05-21T04:44:33.194Z,94833.00
2023-05-21T04:45:33.240Z,94829.00
2023-05-21T04:46:33.208Z,94829.00
2023-05-21T04:47:33.239Z,94831.00
2023-05-21T04:48:33.190Z,94831.00
2023-05-21T04:49:33.185Z,94831.00
2023-05-21T04:50:33.172Z,94833.00
2023-05-21T04:51:33.172Z,94831.00
2023-05-21T04:52:33.130Z,94835.00
2023-05-21T04:53:33.132Z,94833.00
2023-05-21T04:54:33.149Z,94831.00
2023-05-21T04:55:33.120Z,94829.00
2023-05-21T04:56:33.106Z,94825.00
2023-05-21T04:57:33.105Z,94823.00
2023-05-21T04:58:33.066Z,94827.00
2023-05-21T04:59:33.112Z,94825.00
2023-05-21T05:00:33.148Z,94825.00
2023-05-21T05:01:33.081Z,94827.00
2023-05-21T05:02:33.108Z,94829.00
2023-05-21T05:03:33.082Z,94829.00
2023-05-21T05:04:33.064Z,94829.00
2023-05-21T05:05:33.084Z,94833.00
2023-05-21T05:06:33.023Z,94829.00
2023-05-21T05:07:33.028Z,94831.00
2023-05-21T05:08:33.027Z,94825.00
2023-05-21T05:09:33.001Z,94825.00
2023-05-21T05:10:33.016Z,94821.00
2023-05-21T05:11:32.988Z,94821.00
2023-05-21T05:12:33.041Z,94821.00
2023-05-21T05:13:32.996Z,94821.00
2023-05-21T05:14:33.001Z,94823.00
2023-05-21T05:15:32.981Z,94819.00
2023-05-21T05:16:33.039Z,94823.00
2023-05-21T05:17:32.964Z,94821.00
2023-05-21T05:18:33.016Z,94817.00
2023-05-21T05:19:33.080Z,94821.00
2023-05-21T05:20:33.140Z,94817.00
2023-05-21T05:21:33.170Z,94819.00
2023-05-21T05:22:33.173Z,94819.00
2023-05-21T05:23:33.231Z,94817.00
2023-05-21T05:24:33.302Z,94819.00
2023-05-21T05:25:33.378Z,94817.00
2023-05-21T05:26:33.383Z,94815.00
2023-05-21T05:27:33.420Z,94813.00
2023-05-21T05:28:33.469Z,94813.00
2023-05-21T05:29:33.599Z,94813.00
2023-05-21T05:30:33.616Z,94813.00
2023-05-21T05:31:33.635Z,94815.00
2023-05-21T05:32:33.687Z,94815.00
2023-05-21T05:33:33.689Z,94815.00
2023-05-21T05:34:33.720Z,94815.00
2023-05-21T05:35:33.880Z,94815.00
2023-05-21T05:36:33.845Z,94811.00
2023-05-21T05:37:33.850Z,94811.00
2023-05-21T05:38:33.892Z,94811.00
2023-05-21T05:39:33.966Z,94811.00
2023-05-21T05:40:34.033Z,94809.00
2023-05-21T05:41:34.075Z,94809.00
2023-05-21T05:42:34.067Z,94807.00
2023-05-21T05:43:34.104Z,94807.00
2023-05-21T05:44:34.154Z,94805.00
2023-05-21T05:45:34.523Z,94805.00
2023-05-21T05:46:34.280Z,94805.00
2023-05-21T05:47:34.343Z,94805.00
2023-05-21T05:48:34.355Z,94803.00
2023-05-21T05:49:34.372Z,94801.00
2023-05-21T05:50:34.478Z,94803.00
2023-05-21T05:51:34.472Z,94805.00
2023-05-21T05:52:34.532Z,94807.00
2023-05-21T05:53:34.579Z,94809.00
2023-05-21T05:54:34.606Z,94805.00
2023-05-21T05:55:34.859Z,94807.00
2023-05-21T05:56:34.694Z,94807.00
2023-05-21T05:57:34.715Z,94811.00
2023-05-21T05:58:34.775Z,94813.00
2023-05-21T05:59:34.810Z,94815.00
2023-05-21T06:00:34.961Z,94813.00
2023-05-21T06:01:34.923Z,94807.00
2023-05-21T06:02:35.049Z,94811.00
2023-05-21T06:03:35.123Z,94811.00
2023-05-21T06:04:35.057Z,94811.00
2023-05-21T06:05:35.372Z,94813.00
2023-05-21T06:06:35.123Z,94815.00
2023-05-21T06:07:35.161Z,94815.00
2023-05-21T06:08:36.701Z,94811.00
2023-05-21T06:09:35.203Z,94813.00
2023-05-21T06:10:35.214Z,94811.00
2023-05-21T06:11:35.187Z,94811.00
2023-05-21T06:12:35.223Z,94807.00
2023-05-21T06:13:35.218Z,94807.00
2023-05-21T06:14:35.171Z,94809.00
2023-05-21T06:15:35.449Z,94805.00
2023-05-21T06:16:35.211Z,94809.00
2023-05-21T06:17:35.163Z,94809.00
2023-05-21T06:18:35.166Z,94809.00
2023-05-21T06:19:35.162Z,94805.00
2023-05-21T06:20:35.188Z,94803.00
2023-05-21T06:21:35.125Z,94803.00
2023-05-21T06:22:35.142Z,94799.00
2023-05-21T06:23:35.127Z,94797.00
2023-05-21T06:24:35.113Z,94793.00
2023-05-21T06:25:35.417Z,94791.00
2023-05-21T06:26:35.091Z,94791.00
2023-05-21T06:27:35.164Z,94791.00
2023-05-21T06:28:35.098Z,94791.00
2023-05-21T06:29:35.083Z,94788.00
2023-05-21T06:30:35.054Z,94788.00
2023-05-21T06:31:35.053Z,94790.00
2023-05-21T06:32:35.091Z,94790.00
2023-05-21T06:33:35.103Z,94790.00
2023-05-21T06:34:35.009Z,94788.00
2023-05-21T06:35:35.286Z,94788.00
2023-05-21T06:36:34.994Z,94786.00
2023-05-21T06:37:34.988Z,94784.00
2023-05-21T06:38:34.999Z,94780.00
2023-05-21T06:39:34.973Z,94784.00
2023-05-21T06:40:34.997Z,94782.00
2023-05-21T06:41:34.991Z,94780.00
2023-05-21T06:42:34.975Z,94782.00
2023-05-21T06:43:34.972Z,94782.00
2023-05-21T06:44:34.932Z,94780.00
2023-05-21T06:45:35.134Z,94780.00
2023-05-21T06:46:35.195Z,94780.00
2023-05-21T06:47:34.974Z,94780.00
2023-05-21T06:48:34.897Z,94780.00
2023-05-21T06:49:34.897Z,94782.00
2023-05-21T06:50:34.905Z,94784.00
2023-05-21T06:51:34.899Z,94786.00
2023-05-21T06:52:34.896Z,94784.00
2023-05-21T06:53:34.911Z,94788.00
2023-05-21T06:54:34.883Z,94788.00
2023-05-21T06:55:35.197Z,94786.00
2023-05-21T06:56:34.879Z,94786.00
2023-05-21T06:57:34.866Z,94784.00
2023-05-21T06:58:34.893Z,94786.00
2023-05-21T06:59:34.859Z,94786.00
2023-05-21T07:00:34.848Z,94784.00
2023-05-21T07:01:34.903Z,94786.00
2023-05-21T07:02:34.966Z,94788.00
2023-05-21T07:03:34.860Z,94784.00
2023-05-21T07:04:34.843Z,94786.00
2023-05-21T07:05:35.253Z,94786.00
2023-05-21T07:06:34.852Z,94788.00
2023-05-21T07:07:34.993Z,94784.00
2023-05-21T07:08:34.970Z,94782.00
2023-05-21T07:09:35.029Z,94784.00
2023-05-21T07:10:34.958Z,94784.00
2023-05-21T07:11:34.996Z,94782.00
2023-05-21T07:12:35.038Z,94780.00
2023-05-21T07:13:35.054Z,94778.00
2023-05-21T07:14:35.039Z,94782.00
2023-05-21T07:15:35.256Z,94780.00
2023-05-21T07:16:35.133Z,94778.00
2023-05-21T07:17:35.165Z,94778.00
2023-05-21T07:18:35.159Z,94778.00
2023-05-21T07:19:35.171Z,94780.00
2023-05-21T07:20:35.241Z,94776.00
2023-05-21T07:21:35.232Z,94776.00
2023-05-21T07:22:35.229Z,94772.00
2023-05-21T07:23:35.247Z,94770.00
2023-05-21T07:24:35.320Z,94770.00
2023-05-21T07:25:35.593Z,94770.00
2023-05-21T07:26:35.339Z,94766.00
2023-05-21T07:27:35.371Z,94766.00
2023-05-21T07:28:35.396Z,94762.00
2023-05-21T07:29:35.434Z,94766.00
2023-05-21T07:30:35.431Z,94762.00
2023-05-21T07:31:35.602Z,94760.00
2023-05-21T07:32:35.485Z,94758.00
2023-05-21T07:33:35.496Z,94756.00
2023-05-21T07:34:35.519Z,94754.00
2023-05-21T07:35:35.749Z,94752.00
2023-05-21T07:36:35.555Z,94754.00
2023-05-21T07:37:35.632Z,94750.00
2023-05-21T07:38:35.636Z,94752.00
2023-05-21T07:39:35.611Z,94750.00
2023-05-21T07:40:35.663Z,94750.00
2023-05-21T07:41:35.680Z,94748.00
2023-05-21T07:42:35.671Z,94745.00
2023-05-21T07:43:35.702Z,94743.00
2023-05-21T07:44:35.742Z,94743.00
2023-05-21T07:45:35.993Z,94741.00
2023-05-21T07:46:35.827Z,94739.00
2023-05-21T07:47:35.946Z,94739.00
2023-05-21T07:48:35.915Z,94741.00
2023-05-21T07:49:35.809Z,94745.00
2023-05-21T07:50:35.869Z,94745.00
2023-05-21T07:51:35.859Z,94747.00
2023-05-21T07:52:36.136Z,94745.00
2023-05-21T07:53:35.909Z,94743.00
2023-05-21T07:54:35.935Z,94739.00
2023-05-21T07:55:36.217Z,94737.00
2023-05-21T07:56:35.932Z,94729.00
2023-05-21T07:57:35.958Z,94727.00
2023-05-21T07:58:35.991Z,94727.00
2023-05-21T07:59:35.991Z,94729.00
2023-05-21T08:00:36.042Z,94731.00
2023-05-21T08:01:36.030Z,94729.00
2023-05-21T08:02:36.110Z,94729.00
2023-05-21T08:03:36.196Z,94729.00
2023-05-21T08:04:38.525Z,94725.00
2023-05-21T08:05:36.269Z,94725.00
2023-05-21T08:06:36.106Z,94729.00
2023-05-21T08:07:36.067Z,94727.00
2023-05-21T08:08:36.058Z,94727.00
2023-05-21T08:09:36.051Z,94723.00
2023-05-21T08:10:36.052Z,94721.00
2023-05-21T08:11:36.225Z,94723.00
2023-05-21T08:12:36.036Z,94723.00
2023-05-21T08:13:36.043Z,94725.00
2023-05-21T08:14:36.020Z,94723.00
2023-05-21T08:15:36.209Z,94723.00
2023-05-21T08:16:36.223Z,94723.00
2023-05-21T08:17:36.029Z,94723.00
2023-05-21T08:18:36.080Z,94721.00
2023-05-21T08:19:36.008Z,94721.00
2023-05-21T08:20:36.053Z,94721.00
2023-05-21T08:21:43.582Z,94721.00
2023-05-21T08:22:35.975Z,94719.00
2023-05-21T08:23:35.961Z,94717.00
2023-05-21T08:24:35.941Z,94721.00
2023-05-21T08:25:36.159Z,94719.00
2023-05-21T08:26:35.943Z,94717.00
2023-05-21T08:27:35.947Z,94715.00
2023-05-21T08:28:35.905Z,94713.00
2023-05-21T08:29:35.917Z,94711.00
2023-05-21T08:30:35.902Z,94707.00
2023-05-21T08:31:35.938Z,94707.00
2023-05-21T08:32:35.919Z,94703.00
2023-05-21T08:33:35.877Z,94699.00
2023-05-21T08:34:35.885Z,94699.00
2023-05-21T08:35:36.055Z,94696.00
2023-05-21T08:36:35.869Z,94696.00
2023-05-21T08:37:35.830Z,94697.00
2023-05-21T08:38:35.840Z,94699.00
2023-05-21T08:39:35.868Z,94701.00
2023-05-21T08:40:35.954Z,94699.00
2023-05-21T08:41:35.846Z,94701.00
2023-05-21T08:42:37.586Z,94701.00
2023-05-21T08:43:35.817Z,94697.00
2023-05-21T08:44:35.816Z,94699.00
2023-05-21T08:45:35.913Z,94696.00
2023-05-21T08:46:35.786Z,94694.00
2023-05-21T08:47:35.819Z,94692.00
2023-05-21T08:48:35.867Z,94692.00
2023-05-21T08:49:35.934Z,94692.00
2023-05-21T08:50:35.759Z,94690.00
2023-05-21T08:51:35.752Z,94692.00
2023-05-21T08:52:35.752Z,94692.00
2023-05-21T08:53:35.747Z,94688.00
2023-05-21T08:54:35.767Z,94688.00
2023-05-21T08:55:35.871Z,94684.00
2023-05-21T08:56:35.842Z,94684.00
2023-05-21T08:57:35.728Z,94684.00
2023-05-21T08:58:35.699Z,94684.00
2023-05-21T08:59:35.748Z,94684.00
2023-05-21T09:00:35.693Z,94686.00
2023-05-21T09:01:35.737Z,94684.00
2023-05-21T09:02:35.717Z,94684.00
2023-05-21T09:03:35.703Z,94684.00
2023-05-21T09:04:35.700Z,94680.00
2023-05-21T09:05:35.797Z,94678.00
2023-05-21T09:06:35.668Z,94678.00
2023-05-21T09:07:35.673Z,94678.00
2023-05-21T09:08:35.632Z,94676.00
2023-05-21T09:09:35.699Z,94676.00
2023-05-21T09:10:43.586Z,94676.00
2023-05-21T09:11:35.621Z,94676.00
2023-05-21T09:12:35.596Z,94680.00
2023-05-21T09:13:37.526Z,94682.00
2023-05-21T09:14:35.642Z,94680.00
2023-05-21T09:15:35.777Z,94680.00
2023-05-21T09:16:35.611Z,94680.00
2023-05-21T09:17:35.609Z,94678.00
2023-05-21T09:18:35.596Z,94680.00
2023-05-21T09:19:35.751Z,94678.00
2023-05-21T09:20:35.587Z,94682.00
2023-05-21T09:21:35.594Z,94682.00
2023-05-21T09:22:35.548Z,94682.00
2023-05-21T09:23:35.551Z,94684.00
2023-05-21T09:24:36.603Z,94686.00
2023-05-21T09:25:35.693Z,94688.00
2023-05-21T09:26:35.544Z,94686.00
2023-05-21T09:27:35.519Z,94684.00
2023-05-21T09:28:35.536Z,94684.00
2023-05-21T09:29:35.511Z,94686.00
2023-05-21T09:30:36.263Z,94686.00
2023-05-21T09:31:35.519Z,94684.00
2023-05-21T09:32:35.523Z,94682.00
2023-05-21T09:33:35.465Z,94684.00
2023-05-21T09:34:35.438Z,94686.00
2023-05-21T09:35:36.247Z,94686.00
2023-05-21T09:36:35.461Z,94692.00
2023-05-21T09:37:35.448Z,94684.00
2023-05-21T09:38:35.424Z,94688.00
2023-05-21T09:39:35.422Z,94692.00
2023-05-21T09:40:35.615Z,94697.00
2023-05-21T09:41:35.413Z,94699.00
2023-05-21T09:42:35.426Z,94696.00
2023-05-21T09:43:35.407Z,94701.00
2023-05-21T09:44:35.392Z,94699.00
2023-05-21T09:45:35.534Z,94701.00
2023-05-21T09:46:35.410Z,94701.00
2023-05-21T09:47:35.451Z,94696.00
2023-05-21T09:48:35.500Z,94697.00
2023-05-21T09:49:35.524Z,94694.00
2023-05-21T09:50:35.856Z,94696.00
2023-05-21T09:51:35.640Z,94688.00
2023-05-21T09:52:35.700Z,94688.00
2023-05-21T09:53:35.717Z,94686.00
2023-05-21T09:54:35.818Z,94690.00
2023-05-21T09:55:35.876Z,94694.00
2023-05-21T09:56:35.905Z,94694.00
2023-05-21T09:57:35.987Z,94696.00
2023-05-21T09:58:36.015Z,94696.00
2023-05-21T09:59:36.107Z,94690.00
2023-05-21T10:00:36.313Z,94694.00
2023-05-21T10:01:36.302Z,94699.00
2023-05-21T10:02:36.277Z,94697.00
2023-05-21T10:03:36.334Z,94697.00
2023-05-21T10:04:36.436Z,94696.00
2023-05-21T10:05:36.409Z,94696.00
2023-05-21T10:06:36.487Z,94697.00
2023-05-21T10:07:36.519Z,94696.00
2023-05-21T10:08:36.596Z,94697.00
2023-05-21T10:09:36.625Z,94696.00
2023-05-21T10:10:36.821Z,94694.00
2023-05-21T10:11:36.795Z,94696.00
2023-05-21T10:12:36.841Z,94696.00
2023-05-21T10:13:36.922Z,94692.00
2023-05-21T10:14:36.968Z,94692.00
2023-05-21T10:15:37.013Z,94686.00
2023-05-21T10:16:37.209Z,94684.00
2023-05-21T10:17:37.165Z,94690.00
2023-05-21T10:18:37.188Z,94686.00
2023-05-21T10:19:37.274Z,94686.00
2023-05-21T10:20:37.542Z,94694.00
2023-05-21T10:21:37.431Z,94697.00
2023-05-21T10:22:37.441Z,94692.00
2023-05-21T10:23:37.521Z,94690.00
2023-05-21T10:24:37.570Z,94684.00
2023-05-21T10:25:37.654Z,94676.00
2023-05-21T10:26:37.700Z,94680.00
2023-05-21T10:27:37.799Z,94682.00
2023-05-21T10:28:37.863Z,94684.00
2023-05-21T10:29:37.932Z,94678.00
2023-05-21T10:30:38.320Z,94676.00
2023-05-21T10:31:37.997Z,94680.00
2023-05-21T10:32:38.177Z,94678.00
2023-05-21T10:33:38.235Z,94678.00
2023-05-21T10:34:38.149Z,94670.00
2023-05-21T10:35:38.539Z,94668.00
2023-05-21T10:36:38.295Z,94666.00
2023-05-21T10:37:38.361Z,94666.00
2023-05-21T10:38:38.437Z,94654.00
2023-05-21T10:39:38.487Z,94664.00
2023-05-21T10:40:38.632Z,94660.00
2023-05-21T10:41:38.593Z,94660.00
2023-05-21T10:42:38.662Z,94660.00
2023-05-21T10:43:38.693Z,94658.00
2023-05-21T10:44:38.776Z,94662.00
2023-05-21T10:45:38.908Z,94662.00
2023-05-21T10:46:38.950Z,94656.00
2023-05-21T10:47:38.994Z,94662.00
2023-05-21T10:48:39.035Z,94656.00
2023-05-21T10:49:39.107Z,94654.00
2023-05-21T10:50:39.285Z,94652.00
2023-05-21T10:51:39.234Z,94649.00
2023-05-21T10:52:39.288Z,94649.00
2023-05-21T10:53:39.396Z,94649.00
2023-05-21T10:54:39.398Z,94650.00
2023-05-21T10:55:39.452Z,94650.00
2023-05-21T10:56:39.545Z,94649.00
2023-05-21T10:57:39.583Z,94649.00
2023-05-21T10:58:39.648Z,94647.00
2023-05-21T10:59:39.755Z,94649.00
2023-05-21T11:00:39.791Z,94645.00
2023-05-21T11:01:40.012Z,94645.00
2023-05-21T11:02:40.001Z,94645.00
2023-05-21T11:03:39.996Z,94647.00
2023-05-21T11:04:40.183Z,94643.00
2023-05-21T11:05:40.105Z,94641.00
2023-05-21T11:06:40.150Z,94641.00
2023-05-21T11:07:40.239Z,94641.00
2023-05-21T11:08:40.272Z,94639.00
2023-05-21T11:09:40.335Z,94647.00
2023-05-21T11:10:40.527Z,94639.00
2023-05-21T11:11:40.491Z,94639.00
2023-05-21T11:12:40.499Z,94643.00
2023-05-21T11:13:40.564Z,94641.00
2023-05-21T11:14:40.605Z,94641.00
2023-05-21T11:15:40.672Z,94637.00
2023-05-21T11:16:40.814Z,94647.00
2023-05-21T11:17:40.860Z,94645.00
2023-05-21T11:18:40.868Z,94643.00
2023-05-21T11:19:41.075Z,94647.00
2023-05-21T11:20:40.970Z,94643.00
2023-05-21T11:21:41.025Z,94645.00
2023-05-21T11:22:41.082Z,94643.00
2023-05-21T11:23:41.126Z,94645.00
2023-05-21T11:24:41.220Z,94645.00
2023-05-21T11:25:41.274Z,94639.00
2023-05-21T11:26:41.362Z,94641.00
2023-05-21T11:27:41.405Z,94643.00
2023-05-21T11:28:41.483Z,94641.00
2023-05-21T11:29:41.546Z,94647.00
2023-05-21T11:30:41.895Z,94645.00
2023-05-21T11:31:41.763Z,94643.00
2023-05-21T11:32:41.723Z,94637.00
2023-05-21T11:33:41.950Z,94643.00
2023-05-21T11:34:41.828Z,94637.00
2023-05-21T11:35:41.898Z,94643.00
2023-05-21T11:36:41.950Z,94641.00
2023-05-21T11:37:42.059Z,94641.00
2023-05-21T11:38:42.062Z,94643.00
2023-05-21T11:39:42.126Z,94645.00
2023-05-21T11:40:42.238Z,94641.00
2023-05-21T11:41:42.267Z,94643.00
2023-05-21T11:42:42.360Z,94639.00
2023-05-21T11:43:42.354Z,94635.00
2023-05-21T11:44:42.460Z,94635.00